sensor_id;sensor_type;location;lat;lon;timestamp;P1;durP1;ratioP1;P2;durP2;ratioP2
26742;SDS011;14341;51.256;22.478;2023-04-16T00:00:42;40.63;;;27.17;;
26742;SDS011;14341;51.256;22.478;2023-04-16T00:03:48;43.22;;;28.13;;
26742;SDS011;14341;51.256;22.478;2023-04-16T00:06:51;38.78;;;25.88;;
26742;SDS011;14341;51.256;22.478;2023-04-16T00:09:54;40.15;;;26.55;;
26742;SDS011;14341;51.256;22.478;2023-04-16T00:12:57;39.42;;;26.88;;
26742;SDS011;14341;51.256;22.478;2023-04-16T00:16:01;40.05;;;25.92;;
26742;SDS011;14341;51.256;22.478;2023-04-16T00:19:05;41.78;;;26.27;;
26742;SDS011;14341;51.256;22.478;2023-04-16T00:22:09;39.92;;;25.70;;
26742;SDS011;14341;51.256;22.478;2023-04-16T00:25:12;41.08;;;26.80;;
26742;SDS011;14341;51.256;22.478;2023-04-16T00:28:16;39.70;;;25.63;;
26742;SDS011;14341;51.256;22.478;2023-04-16T00:31:25;36.70;;;24.52;;
26742;SDS011;14341;51.256;22.478;2023-04-16T00:34:31;41.17;;;25.48;;
26742;SDS011;14341;51.256;22.478;2023-04-16T00:37:34;36.40;;;24.30;;
26742;SDS011;14341;51.256;22.478;2023-04-16T00:40:37;32.85;;;23.35;;
26742;SDS011;14341;51.256;22.478;2023-04-16T00:43:41;37.42;;;24.20;;
26742;SDS011;14341;51.256;22.478;2023-04-16T00:46:45;37.40;;;22.92;;
26742;SDS011;14341;51.256;22.478;2023-04-16T00:49:50;36.85;;;24.42;;
26742;SDS011;14341;51.256;22.478;2023-04-16T00:52:53;41.00;;;23.85;;
26742;SDS011;14341;51.256;22.478;2023-04-16T00:55:58;39.28;;;23.85;;
26742;SDS011;14341;51.256;22.478;2023-04-16T00:59:02;37.05;;;25.20;;
26742;SDS011;14341;51.256;22.478;2023-04-16T01:02:06;42.40;;;26.08;;
26742;SDS011;14341;51.256;22.478;2023-04-16T01:05:10;44.67;;;25.92;;
26742;SDS011;14341;51.256;22.478;2023-04-16T01:08:14;42.63;;;26.52;;
26742;SDS011;14341;51.256;22.478;2023-04-16T01:11:19;42.22;;;24.92;;
26742;SDS011;14341;51.256;22.478;2023-04-16T01:14:22;43.13;;;25.67;;
26742;SDS011;14341;51.256;22.478;2023-04-16T01:17:25;47.55;;;27.15;;
26742;SDS011;14341;51.256;22.478;2023-04-16T01:20:34;46.60;;;28.08;;
26742;SDS011;14341;51.256;22.478;2023-04-16T01:23:38;49.00;;;26.95;;
26742;SDS011;14341;51.256;22.478;2023-04-16T01:26:41;43.90;;;26.75;;
26742;SDS011;14341;51.256;22.478;2023-04-16T01:29:44;44.42;;;27.48;;
26742;SDS011;14341;51.256;22.478;2023-04-16T01:32:53;45.75;;;27.17;;
26742;SDS011;14341;51.256;22.478;2023-04-16T01:35:58;49.28;;;28.35;;
26742;SDS011;14341;51.256;22.478;2023-04-16T01:39:01;46.50;;;28.45;;
26742;SDS011;14341;51.256;22.478;2023-04-16T01:42:04;48.88;;;29.85;;
26742;SDS011;14341;51.256;22.478;2023-04-16T01:45:08;50.65;;;29.98;;
26742;SDS011;14341;51.256;22.478;2023-04-16T01:48:12;50.15;;;29.13;;
26742;SDS011;14341;51.256;22.478;2023-04-16T01:51:16;47.42;;;28.63;;
26742;SDS011;14341;51.256;22.478;2023-04-16T01:54:19;47.45;;;28.33;;
26742;SDS011;14341;51.256;22.478;2023-04-16T01:57:23;47.75;;;28.73;;
26742;SDS011;14341;51.256;22.478;2023-04-16T02:03:44;45.13;;;26.67;;
26742;SDS011;14341;51.256;22.478;2023-04-16T02:06:50;43.85;;;25.95;;
26742;SDS011;14341;51.256;22.478;2023-04-16T02:09:53;42.78;;;26.20;;
26742;SDS011;14341;51.256;22.478;2023-04-16T02:12:58;40.95;;;26.05;;
26742;SDS011;14341;51.256;22.478;2023-04-16T02:16:01;38.17;;;25.27;;
26742;SDS011;14341;51.256;22.478;2023-04-16T02:19:22;42.22;;;25.50;;
26742;SDS011;14341;51.256;22.478;2023-04-16T02:22:27;40.75;;;25.17;;
26742;SDS011;14341;51.256;22.478;2023-04-16T02:25:31;42.10;;;24.77;;
26742;SDS011;14341;51.256;22.478;2023-04-16T02:28:35;34.85;;;23.52;;
26742;SDS011;14341;51.256;22.478;2023-04-16T02:31:39;37.00;;;24.05;;
26742;SDS011;14341;51.256;22.478;2023-04-16T02:34:44;36.10;;;23.17;;
26742;SDS011;14341;51.256;22.478;2023-04-16T02:37:50;36.42;;;23.35;;
26742;SDS011;14341;51.256;22.478;2023-04-16T02:40:53;34.75;;;22.02;;
26742;SDS011;14341;51.256;22.478;2023-04-16T02:43:57;32.65;;;22.00;;
26742;SDS011;14341;51.256;22.478;2023-04-16T02:47:00;32.00;;;21.63;;
26742;SDS011;14341;51.256;22.478;2023-04-16T02:50:04;35.50;;;22.85;;
26742;SDS011;14341;51.256;22.478;2023-04-16T02:53:10;34.05;;;21.45;;
26742;SDS011;14341;51.256;22.478;2023-04-16T02:56:13;29.60;;;21.73;;
26742;SDS011;14341;51.256;22.478;2023-04-16T02:59:17;36.08;;;22.52;;
26742;SDS011;14341;51.256;22.478;2023-04-16T03:02:20;30.40;;;21.98;;
26742;SDS011;14341;51.256;22.478;2023-04-16T03:05:23;32.25;;;21.33;;
26742;SDS011;14341;51.256;22.478;2023-04-16T03:08:28;34.42;;;22.45;;
26742;SDS011;14341;51.256;22.478;2023-04-16T03:11:31;33.47;;;22.88;;
26742;SDS011;14341;51.256;22.478;2023-04-16T03:14:35;31.90;;;21.80;;
26742;SDS011;14341;51.256;22.478;2023-04-16T03:17:38;35.63;;;23.10;;
26742;SDS011;14341;51.256;22.478;2023-04-16T03:20:43;34.45;;;21.02;;
26742;SDS011;14341;51.256;22.478;2023-04-16T03:23:47;34.13;;;21.58;;
26742;SDS011;14341;51.256;22.478;2023-04-16T03:26:51;31.15;;;21.38;;
26742;SDS011;14341;51.256;22.478;2023-04-16T03:29:57;32.05;;;22.00;;
26742;SDS011;14341;51.256;22.478;2023-04-16T03:33:01;32.17;;;21.15;;
26742;SDS011;14341;51.256;22.478;2023-04-16T03:36:04;29.85;;;20.10;;
26742;SDS011;14341;51.256;22.478;2023-04-16T03:39:10;29.50;;;20.40;;
26742;SDS011;14341;51.256;22.478;2023-04-16T03:42:13;32.55;;;21.33;;
26742;SDS011;14341;51.256;22.478;2023-04-16T03:45:16;28.48;;;19.15;;
26742;SDS011;14341;51.256;22.478;2023-04-16T03:48:22;30.35;;;19.27;;
26742;SDS011;14341;51.256;22.478;2023-04-16T03:51:27;28.25;;;19.90;;
26742;SDS011;14341;51.256;22.478;2023-04-16T03:54:32;30.95;;;20.02;;
26742;SDS011;14341;51.256;22.478;2023-04-16T03:57:48;27.67;;;18.98;;
26742;SDS011;14341;51.256;22.478;2023-04-16T04:00:51;30.02;;;19.65;;
26742;SDS011;14341;51.256;22.478;2023-04-16T04:03:55;29.75;;;20.35;;
26742;SDS011;14341;51.256;22.478;2023-04-16T04:06:59;31.05;;;20.77;;
26742;SDS011;14341;51.256;22.478;2023-04-16T04:10:04;29.77;;;21.90;;
26742;SDS011;14341;51.256;22.478;2023-04-16T04:13:12;24.02;;;17.10;;
26742;SDS011;14341;51.256;22.478;2023-04-16T04:16:16;32.70;;;21.63;;
26742;SDS011;14341;51.256;22.478;2023-04-16T04:19:19;37.35;;;24.85;;
26742;SDS011;14341;51.256;22.478;2023-04-16T04:22:23;41.45;;;24.88;;
26742;SDS011;14341;51.256;22.478;2023-04-16T04:25:28;38.22;;;24.88;;
26742;SDS011;14341;51.256;22.478;2023-04-16T04:28:32;33.33;;;23.10;;
26742;SDS011;14341;51.256;22.478;2023-04-16T04:31:38;35.15;;;23.08;;
26742;SDS011;14341;51.256;22.478;2023-04-16T04:34:41;33.28;;;23.73;;
26742;SDS011;14341;51.256;22.478;2023-04-16T04:37:45;34.97;;;24.38;;
26742;SDS011;14341;51.256;22.478;2023-04-16T04:40:54;33.20;;;23.55;;
26742;SDS011;14341;51.256;22.478;2023-04-16T04:43:59;35.25;;;23.90;;
26742;SDS011;14341;51.256;22.478;2023-04-16T04:47:02;36.90;;;24.55;;
26742;SDS011;14341;51.256;22.478;2023-04-16T04:50:06;33.67;;;23.83;;
26742;SDS011;14341;51.256;22.478;2023-04-16T04:53:11;33.30;;;24.70;;
26742;SDS011;14341;51.256;22.478;2023-04-16T04:56:17;35.42;;;24.50;;
26742;SDS011;14341;51.256;22.478;2023-04-16T04:59:22;30.70;;;22.50;;
26742;SDS011;14341;51.256;22.478;2023-04-16T05:02:25;30.95;;;22.02;;
26742;SDS011;14341;51.256;22.478;2023-04-16T05:05:29;30.83;;;22.50;;
26742;SDS011;14341;51.256;22.478;2023-04-16T05:08:32;36.42;;;23.45;;
26742;SDS011;14341;51.256;22.478;2023-04-16T05:11:37;32.15;;;22.58;;
26742;SDS011;14341;51.256;22.478;2023-04-16T05:14:43;29.92;;;22.05;;
26742;SDS011;14341;51.256;22.478;2023-04-16T05:17:46;32.10;;;22.08;;
26742;SDS011;14341;51.256;22.478;2023-04-16T05:20:50;30.52;;;21.30;;
26742;SDS011;14341;51.256;22.478;2023-04-16T05:23:53;30.65;;;21.58;;
26742;SDS011;14341;51.256;22.478;2023-04-16T05:26:58;33.60;;;21.65;;
26742;SDS011;14341;51.256;22.478;2023-04-16T05:30:01;30.35;;;21.58;;
26742;SDS011;14341;51.256;22.478;2023-04-16T05:33:05;27.60;;;21.13;;
26742;SDS011;14341;51.256;22.478;2023-04-16T05:36:08;32.22;;;22.83;;
26742;SDS011;14341;51.256;22.478;2023-04-16T05:39:12;31.33;;;21.38;;
26742;SDS011;14341;51.256;22.478;2023-04-16T05:42:17;29.52;;;20.63;;
26742;SDS011;14341;51.256;22.478;2023-04-16T05:45:20;28.40;;;20.00;;
26742;SDS011;14341;51.256;22.478;2023-04-16T05:48:23;26.08;;;20.05;;
26742;SDS011;14341;51.256;22.478;2023-04-16T05:51:27;28.83;;;20.92;;
26742;SDS011;14341;51.256;22.478;2023-04-16T05:54:32;31.92;;;21.83;;
26742;SDS011;14341;51.256;22.478;2023-04-16T05:57:37;31.02;;;21.02;;
26742;SDS011;14341;51.256;22.478;2023-04-16T06:00:40;27.67;;;19.88;;
26742;SDS011;14341;51.256;22.478;2023-04-16T06:03:43;27.42;;;20.52;;
26742;SDS011;14341;51.256;22.478;2023-04-16T06:06:47;28.98;;;19.35;;
26742;SDS011;14341;51.256;22.478;2023-04-16T06:09:51;25.33;;;19.90;;
26742;SDS011;14341;51.256;22.478;2023-04-16T06:12:55;24.73;;;19.48;;
26742;SDS011;14341;51.256;22.478;2023-04-16T06:15:59;27.00;;;19.58;;
26742;SDS011;14341;51.256;22.478;2023-04-16T06:19:02;23.45;;;19.42;;
26742;SDS011;14341;51.256;22.478;2023-04-16T06:22:05;24.15;;;19.90;;
26742;SDS011;14341;51.256;22.478;2023-04-16T06:25:09;24.55;;;18.85;;
26742;SDS011;14341;51.256;22.478;2023-04-16T06:28:14;24.15;;;19.67;;
26742;SDS011;14341;51.256;22.478;2023-04-16T06:31:17;25.00;;;20.25;;
26742;SDS011;14341;51.256;22.478;2023-04-16T06:34:21;26.30;;;19.63;;
26742;SDS011;14341;51.256;22.478;2023-04-16T06:37:24;25.55;;;19.20;;
26742;SDS011;14341;51.256;22.478;2023-04-16T06:40:28;24.13;;;18.67;;
26742;SDS011;14341;51.256;22.478;2023-04-16T06:43:33;26.95;;;19.25;;
26742;SDS011;14341;51.256;22.478;2023-04-16T06:46:36;22.90;;;18.10;;
26742;SDS011;14341;51.256;22.478;2023-04-16T06:49:40;21.35;;;17.58;;
26742;SDS011;14341;51.256;22.478;2023-04-16T06:52:43;21.33;;;17.13;;
26742;SDS011;14341;51.256;22.478;2023-04-16T06:55:46;19.80;;;16.23;;
26742;SDS011;14341;51.256;22.478;2023-04-16T06:58:51;22.88;;;16.52;;
26742;SDS011;14341;51.256;22.478;2023-04-16T07:01:55;22.23;;;16.80;;
26742;SDS011;14341;51.256;22.478;2023-04-16T07:04:58;21.20;;;16.40;;
26742;SDS011;14341;51.256;22.478;2023-04-16T07:08:02;21.38;;;15.93;;
26742;SDS011;14341;51.256;22.478;2023-04-16T07:11:05;20.67;;;16.60;;
26742;SDS011;14341;51.256;22.478;2023-04-16T07:14:10;24.00;;;16.80;;
26742;SDS011;14341;51.256;22.478;2023-04-16T07:17:13;20.73;;;17.05;;
26742;SDS011;14341;51.256;22.478;2023-04-16T07:20:17;19.75;;;15.63;;
26742;SDS011;14341;51.256;22.478;2023-04-16T07:23:20;18.55;;;13.70;;
26742;SDS011;14341;51.256;22.478;2023-04-16T07:26:23;17.55;;;14.25;;
26742;SDS011;14341;51.256;22.478;2023-04-16T07:29:28;15.88;;;13.75;;
26742;SDS011;14341;51.256;22.478;2023-04-16T07:32:31;16.63;;;13.98;;
26742;SDS011;14341;51.256;22.478;2023-04-16T07:35:36;15.15;;;12.35;;
26742;SDS011;14341;51.256;22.478;2023-04-16T07:38:39;15.88;;;13.38;;
26742;SDS011;14341;51.256;22.478;2023-04-16T07:41:42;18.95;;;13.73;;
26742;SDS011;14341;51.256;22.478;2023-04-16T07:44:47;17.52;;;12.23;;
26742;SDS011;14341;51.256;22.478;2023-04-16T07:47:51;17.23;;;13.93;;
26742;SDS011;14341;51.256;22.478;2023-04-16T07:50:54;17.52;;;14.60;;
26742;SDS011;14341;51.256;22.478;2023-04-16T07:53:57;16.00;;;13.60;;
26742;SDS011;14341;51.256;22.478;2023-04-16T07:57:01;17.52;;;14.15;;
26742;SDS011;14341;51.256;22.478;2023-04-16T08:00:06;15.40;;;12.65;;
26742;SDS011;14341;51.256;22.478;2023-04-16T08:03:15;16.23;;;10.93;;
26742;SDS011;14341;51.256;22.478;2023-04-16T08:06:19;20.83;;;12.73;;
26742;SDS011;14341;51.256;22.478;2023-04-16T08:09:25;16.25;;;12.48;;
26742;SDS011;14341;51.256;22.478;2023-04-16T08:12:29;16.17;;;13.05;;
26742;SDS011;14341;51.256;22.478;2023-04-16T08:15:34;16.55;;;13.10;;
26742;SDS011;14341;51.256;22.478;2023-04-16T08:18:38;15.68;;;12.00;;
26742;SDS011;14341;51.256;22.478;2023-04-16T08:21:41;9.57;;;8.45;;
26742;SDS011;14341;51.256;22.478;2023-04-16T08:24:45;11.02;;;8.43;;
26742;SDS011;14341;51.256;22.478;2023-04-16T08:27:48;12.38;;;9.77;;
26742;SDS011;14341;51.256;22.478;2023-04-16T08:30:53;12.75;;;9.98;;
26742;SDS011;14341;51.256;22.478;2023-04-16T08:33:57;15.63;;;10.82;;
26742;SDS011;14341;51.256;22.478;2023-04-16T08:37:17;15.07;;;11.27;;
26742;SDS011;14341;51.256;22.478;2023-04-16T08:40:29;13.50;;;10.90;;
26742;SDS011;14341;51.256;22.478;2023-04-16T08:47:02;16.58;;;12.30;;
26742;SDS011;14341;51.256;22.478;2023-04-16T08:50:14;13.40;;;11.88;;
26742;SDS011;14341;51.256;22.478;2023-04-16T08:53:21;14.13;;;11.95;;
26742;SDS011;14341;51.256;22.478;2023-04-16T08:56:34;18.40;;;12.38;;
26742;SDS011;14341;51.256;22.478;2023-04-16T08:59:46;12.75;;;10.70;;
26742;SDS011;14341;51.256;22.478;2023-04-16T09:02:55;13.65;;;10.55;;
26742;SDS011;14341;51.256;22.478;2023-04-16T09:06:03;17.30;;;11.00;;
26742;SDS011;14341;51.256;22.478;2023-04-16T09:09:11;15.63;;;11.65;;
26742;SDS011;14341;51.256;22.478;2023-04-16T09:12:27;14.40;;;11.50;;
26742;SDS011;14341;51.256;22.478;2023-04-16T09:15:37;14.55;;;12.27;;
26742;SDS011;14341;51.256;22.478;2023-04-16T09:18:52;14.82;;;11.88;;
26742;SDS011;14341;51.256;22.478;2023-04-16T09:21:59;16.52;;;12.07;;
26742;SDS011;14341;51.256;22.478;2023-04-16T09:25:04;16.23;;;11.88;;
26742;SDS011;14341;51.256;22.478;2023-04-16T09:28:12;14.65;;;11.00;;
26742;SDS011;14341;51.256;22.478;2023-04-16T09:31:51;13.07;;;10.75;;
26742;SDS011;14341;51.256;22.478;2023-04-16T09:35:08;13.15;;;10.93;;
26742;SDS011;14341;51.256;22.478;2023-04-16T09:38:11;12.32;;;10.80;;
26742;SDS011;14341;51.256;22.478;2023-04-16T09:41:15;14.32;;;10.93;;
26742;SDS011;14341;51.256;22.478;2023-04-16T09:44:18;13.98;;;11.30;;
26742;SDS011;14341;51.256;22.478;2023-04-16T09:47:22;12.13;;;10.43;;
26742;SDS011;14341;51.256;22.478;2023-04-16T09:50:28;13.77;;;10.68;;
26742;SDS011;14341;51.256;22.478;2023-04-16T09:53:32;15.02;;;10.45;;
26742;SDS011;14341;51.256;22.478;2023-04-16T09:56:38;13.68;;;9.40;;
26742;SDS011;14341;51.256;22.478;2023-04-16T09:59:43;11.65;;;9.20;;
26742;SDS011;14341;51.256;22.478;2023-04-16T10:02:46;10.60;;;9.45;;
26742;SDS011;14341;51.256;22.478;2023-04-16T10:05:53;11.30;;;8.48;;
26742;SDS011;14341;51.256;22.478;2023-04-16T10:08:56;9.25;;;7.78;;
26742;SDS011;14341;51.256;22.478;2023-04-16T10:12:00;9.68;;;8.07;;
26742;SDS011;14341;51.256;22.478;2023-04-16T10:15:04;9.90;;;8.35;;
26742;SDS011;14341;51.256;22.478;2023-04-16T10:18:08;11.43;;;8.10;;
26742;SDS011;14341;51.256;22.478;2023-04-16T10:21:13;9.75;;;8.27;;
26742;SDS011;14341;51.256;22.478;2023-04-16T10:24:17;8.75;;;7.43;;
26742;SDS011;14341;51.256;22.478;2023-04-16T10:27:20;11.70;;;8.35;;
26742;SDS011;14341;51.256;22.478;2023-04-16T10:30:24;10.45;;;7.93;;
26742;SDS011;14341;51.256;22.478;2023-04-16T10:33:30;10.13;;;7.50;;
26742;SDS011;14341;51.256;22.478;2023-04-16T10:36:38;8.82;;;7.82;;
26742;SDS011;14341;51.256;22.478;2023-04-16T10:39:41;7.70;;;6.75;;
26742;SDS011;14341;51.256;22.478;2023-04-16T10:42:52;9.43;;;7.55;;
26742;SDS011;14341;51.256;22.478;2023-04-16T10:45:56;9.80;;;7.50;;
26742;SDS011;14341;51.256;22.478;2023-04-16T10:49:19;8.85;;;7.38;;
26742;SDS011;14341;51.256;22.478;2023-04-16T10:52:27;11.07;;;6.70;;
26742;SDS011;14341;51.256;22.478;2023-04-16T10:55:31;9.18;;;6.80;;
26742;SDS011;14341;51.256;22.478;2023-04-16T10:58:34;10.45;;;6.30;;
26742;SDS011;14341;51.256;22.478;2023-04-16T11:01:40;26.60;;;15.85;;
26742;SDS011;14341;51.256;22.478;2023-04-16T11:04:45;13.38;;;9.70;;
26742;SDS011;14341;51.256;22.478;2023-04-16T11:07:51;22.27;;;15.63;;
26742;SDS011;14341;51.256;22.478;2023-04-16T11:10:56;6.80;;;5.88;;
26742;SDS011;14341;51.256;22.478;2023-04-16T11:14:00;6.43;;;5.65;;
26742;SDS011;14341;51.256;22.478;2023-04-16T11:17:08;8.50;;;5.95;;
26742;SDS011;14341;51.256;22.478;2023-04-16T11:20:17;10.82;;;7.28;;
26742;SDS011;14341;51.256;22.478;2023-04-16T11:23:29;9.27;;;7.43;;
26742;SDS011;14341;51.256;22.478;2023-04-16T11:26:52;8.55;;;6.55;;
26742;SDS011;14341;51.256;22.478;2023-04-16T11:30:02;8.23;;;6.55;;
26742;SDS011;14341;51.256;22.478;2023-04-16T11:33:24;10.40;;;7.32;;
26742;SDS011;14341;51.256;22.478;2023-04-16T11:36:28;9.23;;;7.25;;
26742;SDS011;14341;51.256;22.478;2023-04-16T11:39:51;11.30;;;7.55;;
26742;SDS011;14341;51.256;22.478;2023-04-16T11:43:00;9.60;;;7.38;;
26742;SDS011;14341;51.256;22.478;2023-04-16T11:46:10;8.88;;;7.15;;
26742;SDS011;14341;51.256;22.478;2023-04-16T11:49:29;9.80;;;7.75;;
26742;SDS011;14341;51.256;22.478;2023-04-16T11:52:40;10.00;;;7.47;;
26742;SDS011;14341;51.256;22.478;2023-04-16T11:55:51;9.55;;;7.03;;
26742;SDS011;14341;51.256;22.478;2023-04-16T11:59:09;8.55;;;5.53;;
26742;SDS011;14341;51.256;22.478;2023-04-16T12:05:41;7.90;;;6.25;;
26742;SDS011;14341;51.256;22.478;2023-04-16T12:08:45;7.80;;;6.40;;
26742;SDS011;14341;51.256;22.478;2023-04-16T12:11:53;9.07;;;6.45;;
26742;SDS011;14341;51.256;22.478;2023-04-16T12:15:01;10.93;;;8.00;;
26742;SDS011;14341;51.256;22.478;2023-04-16T12:18:05;9.35;;;7.18;;
26742;SDS011;14341;51.256;22.478;2023-04-16T12:21:12;8.95;;;6.72;;
26742;SDS011;14341;51.256;22.478;2023-04-16T12:24:19;10.32;;;7.93;;
26742;SDS011;14341;51.256;22.478;2023-04-16T12:27:26;10.95;;;8.43;;
26742;SDS011;14341;51.256;22.478;2023-04-16T12:30:47;11.68;;;8.65;;
26742;SDS011;14341;51.256;22.478;2023-04-16T12:34:02;11.93;;;8.43;;
26742;SDS011;14341;51.256;22.478;2023-04-16T12:37:05;11.50;;;8.68;;
26742;SDS011;14341;51.256;22.478;2023-04-16T12:40:12;10.55;;;7.90;;
26742;SDS011;14341;51.256;22.478;2023-04-16T12:43:23;10.75;;;8.70;;
26742;SDS011;14341;51.256;22.478;2023-04-16T12:46:27;13.63;;;8.98;;
26742;SDS011;14341;51.256;22.478;2023-04-16T12:49:42;10.55;;;8.25;;
26742;SDS011;14341;51.256;22.478;2023-04-16T12:52:46;11.68;;;8.15;;
26742;SDS011;14341;51.256;22.478;2023-04-16T12:55:55;11.05;;;7.97;;
26742;SDS011;14341;51.256;22.478;2023-04-16T12:59:02;9.55;;;8.10;;
26742;SDS011;14341;51.256;22.478;2023-04-16T13:02:07;11.52;;;7.93;;
26742;SDS011;14341;51.256;22.478;2023-04-16T13:05:15;12.80;;;9.98;;
26742;SDS011;14341;51.256;22.478;2023-04-16T13:08:21;11.18;;;8.38;;
26742;SDS011;14341;51.256;22.478;2023-04-16T13:11:25;10.77;;;8.38;;
26742;SDS011;14341;51.256;22.478;2023-04-16T13:14:32;11.82;;;9.43;;
26742;SDS011;14341;51.256;22.478;2023-04-16T13:17:41;12.35;;;9.45;;
26742;SDS011;14341;51.256;22.478;2023-04-16T13:20:44;12.35;;;9.55;;
26742;SDS011;14341;51.256;22.478;2023-04-16T13:23:48;12.13;;;9.52;;
26742;SDS011;14341;51.256;22.478;2023-04-16T13:26:54;12.88;;;8.98;;
26742;SDS011;14341;51.256;22.478;2023-04-16T13:30:03;11.43;;;8.52;;
26742;SDS011;14341;51.256;22.478;2023-04-16T13:33:12;10.40;;;8.18;;
26742;SDS011;14341;51.256;22.478;2023-04-16T13:36:22;10.18;;;8.35;;
26742;SDS011;14341;51.256;22.478;2023-04-16T13:39:28;10.13;;;8.07;;
26742;SDS011;14341;51.256;22.478;2023-04-16T13:42:38;11.90;;;8.32;;
26742;SDS011;14341;51.256;22.478;2023-04-16T13:45:44;10.68;;;8.07;;
26742;SDS011;14341;51.256;22.478;2023-04-16T13:48:52;11.00;;;7.72;;
26742;SDS011;14341;51.256;22.478;2023-04-16T13:51:56;12.57;;;8.27;;
26742;SDS011;14341;51.256;22.478;2023-04-16T13:55:05;12.50;;;7.50;;
26742;SDS011;14341;51.256;22.478;2023-04-16T13:58:19;8.95;;;7.50;;
26742;SDS011;14341;51.256;22.478;2023-04-16T14:01:28;10.43;;;7.07;;
26742;SDS011;14341;51.256;22.478;2023-04-16T14:04:32;8.77;;;6.80;;
26742;SDS011;14341;51.256;22.478;2023-04-16T14:07:37;7.97;;;5.95;;
26742;SDS011;14341;51.256;22.478;2023-04-16T14:10:42;7.22;;;5.72;;
26742;SDS011;14341;51.256;22.478;2023-04-16T14:13:47;7.82;;;5.57;;
26742;SDS011;14341;51.256;22.478;2023-04-16T14:16:54;7.00;;;5.28;;
26742;SDS011;14341;51.256;22.478;2023-04-16T14:20:01;7.22;;;5.75;;
26742;SDS011;14341;51.256;22.478;2023-04-16T14:23:09;13.77;;;6.32;;
26742;SDS011;14341;51.256;22.478;2023-04-16T14:26:13;5.70;;;4.90;;
26742;SDS011;14341;51.256;22.478;2023-04-16T14:29:17;5.68;;;4.75;;
26742;SDS011;14341;51.256;22.478;2023-04-16T14:32:25;6.90;;;5.60;;
26742;SDS011;14341;51.256;22.478;2023-04-16T14:35:29;6.88;;;5.15;;
26742;SDS011;14341;51.256;22.478;2023-04-16T14:38:33;6.63;;;4.95;;
26742;SDS011;14341;51.256;22.478;2023-04-16T14:41:37;6.10;;;4.65;;
26742;SDS011;14341;51.256;22.478;2023-04-16T14:44:43;5.80;;;4.75;;
26742;SDS011;14341;51.256;22.478;2023-04-16T14:47:48;5.57;;;4.82;;
26742;SDS011;14341;51.256;22.478;2023-04-16T14:50:52;5.32;;;3.97;;
26742;SDS011;14341;51.256;22.478;2023-04-16T14:53:56;7.80;;;5.47;;
26742;SDS011;14341;51.256;22.478;2023-04-16T14:57:00;7.22;;;5.80;;
26742;SDS011;14341;51.256;22.478;2023-04-16T15:00:12;9.38;;;5.93;;
26742;SDS011;14341;51.256;22.478;2023-04-16T15:03:21;6.88;;;5.68;;
26742;SDS011;14341;51.256;22.478;2023-04-16T15:06:26;7.88;;;6.07;;
26742;SDS011;14341;51.256;22.478;2023-04-16T15:09:30;9.30;;;5.72;;
26742;SDS011;14341;51.256;22.478;2023-04-16T15:12:33;7.43;;;5.43;;
26742;SDS011;14341;51.256;22.478;2023-04-16T15:15:38;7.20;;;5.22;;
26742;SDS011;14341;51.256;22.478;2023-04-16T15:18:45;7.10;;;4.88;;
26742;SDS011;14341;51.256;22.478;2023-04-16T15:21:50;7.32;;;4.78;;
26742;SDS011;14341;51.256;22.478;2023-04-16T15:24:53;7.93;;;5.13;;
26742;SDS011;14341;51.256;22.478;2023-04-16T15:27:59;7.07;;;5.50;;
26742;SDS011;14341;51.256;22.478;2023-04-16T15:31:09;6.30;;;5.53;;
26742;SDS011;14341;51.256;22.478;2023-04-16T15:34:14;6.57;;;5.45;;
26742;SDS011;14341;51.256;22.478;2023-04-16T15:37:18;8.32;;;6.25;;
26742;SDS011;14341;51.256;22.478;2023-04-16T15:40:25;25.05;;;16.50;;
26742;SDS011;14341;51.256;22.478;2023-04-16T15:43:31;10.32;;;7.10;;
26742;SDS011;14341;51.256;22.478;2023-04-16T15:46:34;8.27;;;6.25;;
26742;SDS011;14341;51.256;22.478;2023-04-16T15:49:42;9.80;;;6.32;;
26742;SDS011;14341;51.256;22.478;2023-04-16T15:52:49;10.32;;;7.40;;
26742;SDS011;14341;51.256;22.478;2023-04-16T15:55:52;12.02;;;6.93;;
26742;SDS011;14341;51.256;22.478;2023-04-16T15:58:59;10.82;;;7.43;;
26742;SDS011;14341;51.256;22.478;2023-04-16T16:02:06;10.32;;;7.40;;
26742;SDS011;14341;51.256;22.478;2023-04-16T16:05:12;13.07;;;9.10;;
26742;SDS011;14341;51.256;22.478;2023-04-16T16:08:21;10.68;;;7.20;;
26742;SDS011;14341;51.256;22.478;2023-04-16T16:11:26;6.85;;;5.95;;
26742;SDS011;14341;51.256;22.478;2023-04-16T16:14:33;10.07;;;7.97;;
26742;SDS011;14341;51.256;22.478;2023-04-16T16:17:38;12.80;;;8.20;;
26742;SDS011;14341;51.256;22.478;2023-04-16T16:20:56;12.55;;;8.25;;
26742;SDS011;14341;51.256;22.478;2023-04-16T16:24:04;15.43;;;8.80;;
26742;SDS011;14341;51.256;22.478;2023-04-16T16:27:09;15.02;;;9.82;;
26742;SDS011;14341;51.256;22.478;2023-04-16T16:30:13;13.68;;;9.38;;
26742;SDS011;14341;51.256;22.478;2023-04-16T16:33:18;11.82;;;7.93;;
26742;SDS011;14341;51.256;22.478;2023-04-16T16:36:31;15.57;;;8.70;;
26742;SDS011;14341;51.256;22.478;2023-04-16T16:39:38;12.38;;;8.73;;
26742;SDS011;14341;51.256;22.478;2023-04-16T16:42:42;15.77;;;10.02;;
26742;SDS011;14341;51.256;22.478;2023-04-16T16:45:46;14.25;;;9.68;;
26742;SDS011;14341;51.256;22.478;2023-04-16T16:48:49;13.52;;;9.57;;
26742;SDS011;14341;51.256;22.478;2023-04-16T16:51:55;13.95;;;9.73;;
26742;SDS011;14341;51.256;22.478;2023-04-16T16:55:00;13.45;;;9.32;;
26742;SDS011;14341;51.256;22.478;2023-04-16T16:58:04;14.02;;;9.68;;
26742;SDS011;14341;51.256;22.478;2023-04-16T17:01:07;12.82;;;9.05;;
26742;SDS011;14341;51.256;22.478;2023-04-16T17:04:12;16.10;;;10.52;;
26742;SDS011;14341;51.256;22.478;2023-04-16T17:07:22;18.23;;;12.15;;
26742;SDS011;14341;51.256;22.478;2023-04-16T17:10:26;18.60;;;11.52;;
26742;SDS011;14341;51.256;22.478;2023-04-16T17:13:30;19.98;;;11.85;;
26742;SDS011;14341;51.256;22.478;2023-04-16T17:16:38;14.63;;;10.25;;
26742;SDS011;14341;51.256;22.478;2023-04-16T17:19:47;16.38;;;10.38;;
26742;SDS011;14341;51.256;22.478;2023-04-16T17:22:53;14.63;;;9.57;;
26742;SDS011;14341;51.256;22.478;2023-04-16T17:25:58;12.93;;;9.27;;
26742;SDS011;14341;51.256;22.478;2023-04-16T17:29:06;11.82;;;9.55;;
26742;SDS011;14341;51.256;22.478;2023-04-16T17:32:11;13.00;;;9.60;;
26742;SDS011;14341;51.256;22.478;2023-04-16T17:35:19;14.65;;;10.07;;
26742;SDS011;14341;51.256;22.478;2023-04-16T17:38:28;15.38;;;10.73;;
26742;SDS011;14341;51.256;22.478;2023-04-16T17:41:32;15.25;;;10.70;;
26742;SDS011;14341;51.256;22.478;2023-04-16T17:44:38;14.75;;;11.23;;
26742;SDS011;14341;51.256;22.478;2023-04-16T17:47:43;16.98;;;10.93;;
26742;SDS011;14341;51.256;22.478;2023-04-16T17:50:46;15.43;;;11.05;;
26742;SDS011;14341;51.256;22.478;2023-04-16T17:53:54;16.75;;;10.98;;
26742;SDS011;14341;51.256;22.478;2023-04-16T17:56:57;15.90;;;11.32;;
26742;SDS011;14341;51.256;22.478;2023-04-16T18:00:01;13.63;;;10.55;;
26742;SDS011;14341;51.256;22.478;2023-04-16T18:03:11;16.58;;;11.80;;
26742;SDS011;14341;51.256;22.478;2023-04-16T18:06:16;15.75;;;11.90;;
26742;SDS011;14341;51.256;22.478;2023-04-16T18:09:22;18.65;;;11.80;;